Terminal Aerodrome Forecast
Issued by NWS Paducah, KY

Home | Current Version | Previous Version | Text Only | Print | Product List | Glossary On
Versions: 1 2 3 4 5 6 7 8 9 10 11 12 13 14 15 16 17 18 19
000
FTUS43 KPAH 180300 AAA
TAFEVV
TAF AMD
KEVV 180308Z 1803/1824 VRB03KT 4SM BR SCT003 BKN015
      TEMPO 1803/1806 2SM BR BKN003
     FM180600 00000KT 1SM BR BKN002
      TEMPO 1809/1813 1/4SM FG VV001
     FM181600 27005KT P6SM SCT010 BKN020=

USA.gov is the U.S. government's official web portal to all federal, state and local government web resources and services.